sensor_id;sensor_type;location;lat;lon;timestamp;pressure;altitude;pressure_sealevel;temperature;humidity
68793;BME280;55778;54.346;10.210;2023-12-22T00:00:57;98114.69;;;4.66;87.30
68793;BME280;55778;54.346;10.210;2023-12-22T00:03:22;98116.91;;;4.63;88.15
68793;BME280;55778;54.346;10.210;2023-12-22T00:05:48;98121.09;;;4.65;87.01
68793;BME280;55778;54.346;10.210;2023-12-22T00:08:13;98112.16;;;4.65;86.87
68793;BME280;55778;54.346;10.210;2023-12-22T00:10:38;98127.69;;;4.63;87.58
68793;BME280;55778;54.346;10.210;2023-12-22T00:13:04;98111.34;;;4.64;88.01
68793;BME280;55778;54.346;10.210;2023-12-22T00:15:29;98102.56;;;4.70;87.83
68793;BME280;55778;54.346;10.210;2023-12-22T00:17:54;98123.13;;;4.63;90.07
68793;BME280;55778;54.346;10.210;2023-12-22T00:20:20;98115.88;;;4.64;91.65
68793;BME280;55778;54.346;10.210;2023-12-22T00:22:45;98118.75;;;4.62;94.48
68793;BME280;55778;54.346;10.210;2023-12-22T00:25:11;98101.88;;;4.60;95.42
68793;BME280;55778;54.346;10.210;2023-12-22T00:27:37;98130.03;;;4.66;96.58
68793;BME280;55778;54.346;10.210;2023-12-22T00:30:02;98139.69;;;4.52;99.00
68793;BME280;55778;54.346;10.210;2023-12-22T00:32:27;98139.34;;;4.47;100.00
68793;BME280;55778;54.346;10.210;2023-12-22T00:34:53;98119.78;;;4.45;100.00
68793;BME280;55778;54.346;10.210;2023-12-22T00:37:18;98140.38;;;4.38;100.00
68793;BME280;55778;54.346;10.210;2023-12-22T00:39:43;98143.56;;;4.34;100.00
68793;BME280;55778;54.346;10.210;2023-12-22T00:42:09;98157.56;;;4.29;100.00
68793;BME280;55778;54.346;10.210;2023-12-22T00:44:34;98143.94;;;4.23;100.00
68793;BME280;55778;54.346;10.210;2023-12-22T00:47:00;98145.28;;;4.27;100.00
68793;BME280;55778;54.346;10.210;2023-12-22T00:49:25;98153.69;;;4.24;100.00
68793;BME280;55778;54.346;10.210;2023-12-22T00:51:50;98160.59;;;4.26;100.00
68793;BME280;55778;54.346;10.210;2023-12-22T00:54:16;98145.44;;;4.33;100.00
68793;BME280;55778;54.346;10.210;2023-12-22T00:56:41;98157.59;;;4.21;100.00
68793;BME280;55778;54.346;10.210;2023-12-22T00:59:06;98159.78;;;4.26;100.00
68793;BME280;55778;54.346;10.210;2023-12-22T01:01:32;98167.50;;;4.21;100.00
68793;BME280;55778;54.346;10.210;2023-12-22T01:03:57;98169.19;;;4.22;100.00
68793;BME280;55778;54.346;10.210;2023-12-22T01:06:22;98175.59;;;4.12;100.00
68793;BME280;55778;54.346;10.210;2023-12-22T01:08:48;98165.81;;;4.28;100.00
68793;BME280;55778;54.346;10.210;2023-12-22T01:11:16;98164.47;;;4.24;100.00
68793;BME280;55778;54.346;10.210;2023-12-22T01:13:42;98149.47;;;4.29;100.00
68793;BME280;55778;54.346;10.210;2023-12-22T01:16:08;98146.59;;;4.31;100.00
68793;BME280;55778;54.346;10.210;2023-12-22T01:18:33;98162.13;;;4.29;100.00
68793;BME280;55778;54.346;10.210;2023-12-22T01:20:59;98170.03;;;4.30;100.00
68793;BME280;55778;54.346;10.210;2023-12-22T01:23:24;98161.97;;;4.30;100.00
68793;BME280;55778;54.346;10.210;2023-12-22T01:25:50;98166.50;;;4.38;100.00
68793;BME280;55778;54.346;10.210;2023-12-22T01:28:16;98174.41;;;4.39;100.00
68793;BME280;55778;54.346;10.210;2023-12-22T01:30:41;98174.41;;;4.39;100.00
68793;BME280;55778;54.346;10.210;2023-12-22T01:33:06;98181.13;;;4.35;100.00
68793;BME280;55778;54.346;10.210;2023-12-22T01:35:32;98167.69;;;4.27;100.00
68793;BME280;55778;54.346;10.210;2023-12-22T01:37:57;98171.34;;;4.42;100.00
68793;BME280;55778;54.346;10.210;2023-12-22T01:40:23;98165.13;;;4.34;100.00
68793;BME280;55778;54.346;10.210;2023-12-22T01:42:48;98173.91;;;4.36;100.00
68793;BME280;55778;54.346;10.210;2023-12-22T01:45:13;98172.22;;;4.35;100.00
68793;BME280;55778;54.346;10.210;2023-12-22T01:47:39;98156.06;;;4.27;100.00
68793;BME280;55778;54.346;10.210;2023-12-22T01:50:05;98160.59;;;4.34;100.00
68793;BME280;55778;54.346;10.210;2023-12-22T01:52:31;98160.09;;;4.31;100.00
68793;BME280;55778;54.346;10.210;2023-12-22T01:54:56;98168.53;;;4.20;100.00
68793;BME280;55778;54.346;10.210;2023-12-22T01:57:22;98172.22;;;4.27;100.00
68793;BME280;55778;54.346;10.210;2023-12-22T01:59:48;98183.84;;;4.19;100.00
68793;BME280;55778;54.346;10.210;2023-12-22T02:02:14;98165.84;;;4.20;100.00
68793;BME280;55778;54.346;10.210;2023-12-22T02:04:39;98166.31;;;4.23;100.00
68793;BME280;55778;54.346;10.210;2023-12-22T02:07:06;98155.53;;;4.23;100.00
68793;BME280;55778;54.346;10.210;2023-12-22T02:09:34;98164.47;;;4.24;100.00
68793;BME280;55778;54.346;10.210;2023-12-22T02:11:59;98169.38;;;4.12;100.00
68793;BME280;55778;54.346;10.210;2023-12-22T02:14:25;98173.91;;;4.20;100.00
68793;BME280;55778;54.346;10.210;2023-12-22T02:19:41;98181.16;;;4.27;100.00
68793;BME280;55778;54.346;10.210;2023-12-22T02:22:08;98180.50;;;4.33;100.00
68793;BME280;55778;54.346;10.210;2023-12-22T02:24:34;98185.88;;;4.33;100.00
68793;BME280;55778;54.346;10.210;2023-12-22T02:29:45;98191.91;;;4.11;100.00
68793;BME280;55778;54.346;10.210;2023-12-22T02:32:21;98191.59;;;3.90;100.00
68793;BME280;55778;54.346;10.210;2023-12-22T02:34:51;98184.00;;;3.77;100.00
68793;BME280;55778;54.346;10.210;2023-12-22T02:37:18;98180.84;;;3.32;100.00
68793;BME280;55778;54.346;10.210;2023-12-22T02:39:45;98210.22;;;3.10;100.00
68793;BME280;55778;54.346;10.210;2023-12-22T02:42:11;98202.75;;;2.70;100.00
68793;BME280;55778;54.346;10.210;2023-12-22T02:44:38;98186.44;;;2.64;100.00
68793;BME280;55778;54.346;10.210;2023-12-22T02:47:03;98199.66;;;2.57;100.00
68793;BME280;55778;54.346;10.210;2023-12-22T02:49:28;98197.50;;;2.61;100.00
68793;BME280;55778;54.346;10.210;2023-12-22T02:51:54;98197.34;;;2.62;100.00
68793;BME280;55778;54.346;10.210;2023-12-22T02:54:19;98188.50;;;2.70;100.00
68793;BME280;55778;54.346;10.210;2023-12-22T02:56:48;98211.72;;;2.79;100.00
68793;BME280;55778;54.346;10.210;2023-12-22T02:59:13;98207.50;;;2.76;100.00
68793;BME280;55778;54.346;10.210;2023-12-22T03:01:39;98224.28;;;2.27;100.00
68793;BME280;55778;54.346;10.210;2023-12-22T03:04:04;98211.75;;;1.92;100.00
68793;BME280;55778;54.346;10.210;2023-12-22T03:06:29;98222.97;;;1.88;100.00
68793;BME280;55778;54.346;10.210;2023-12-22T03:08:55;98222.03;;;1.97;100.00
68793;BME280;55778;54.346;10.210;2023-12-22T03:11:20;98208.34;;;2.08;100.00
68793;BME280;55778;54.346;10.210;2023-12-22T03:13:45;98203.84;;;2.08;100.00
68793;BME280;55778;54.346;10.210;2023-12-22T03:16:11;98220.19;;;2.15;100.00
68793;BME280;55778;54.346;10.210;2023-12-22T03:18:39;98222.94;;;2.05;100.00
68793;BME280;55778;54.346;10.210;2023-12-22T03:21:04;98225.25;;;2.00;100.00
68793;BME280;55778;54.346;10.210;2023-12-22T03:23:30;98230.00;;;2.06;100.00
68793;BME280;55778;54.346;10.210;2023-12-22T03:25:55;98233.44;;;1.99;100.00
68793;BME280;55778;54.346;10.210;2023-12-22T03:28:21;98222.19;;;1.95;100.00
68793;BME280;55778;54.346;10.210;2023-12-22T03:30:46;98218.34;;;1.98;100.00
68793;BME280;55778;54.346;10.210;2023-12-22T03:33:11;98240.06;;;2.04;100.00
68793;BME280;55778;54.346;10.210;2023-12-22T03:35:37;98212.13;;;2.15;100.00
68793;BME280;55778;54.346;10.210;2023-12-22T03:38:02;98217.97;;;2.36;100.00
68793;BME280;55778;54.346;10.210;2023-12-22T03:40:28;98197.56;;;2.43;100.00
68793;BME280;55778;54.346;10.210;2023-12-22T03:42:55;98189.84;;;2.74;100.00
68793;BME280;55778;54.346;10.210;2023-12-22T03:45:20;98180.94;;;2.73;100.00
68793;BME280;55778;54.346;10.210;2023-12-22T03:47:46;98191.75;;;2.81;100.00
68793;BME280;55778;54.346;10.210;2023-12-22T03:50:11;98166.19;;;2.85;100.00
68793;BME280;55778;54.346;10.210;2023-12-22T03:52:36;98179.38;;;2.96;100.00
68793;BME280;55778;54.346;10.210;2023-12-22T03:55:02;98168.63;;;3.04;100.00
68793;BME280;55778;54.346;10.210;2023-12-22T03:57:27;98166.84;;;3.13;100.00
68793;BME280;55778;54.346;10.210;2023-12-22T03:59:53;98191.59;;;3.24;100.00
68793;BME280;55778;54.346;10.210;2023-12-22T04:02:18;98201.88;;;3.37;100.00
68793;BME280;55778;54.346;10.210;2023-12-22T04:04:44;98205.63;;;3.44;100.00
68793;BME280;55778;54.346;10.210;2023-12-22T04:07:09;98212.38;;;3.48;100.00
68793;BME280;55778;54.346;10.210;2023-12-22T04:09:37;98250.09;;;3.22;100.00
68793;BME280;55778;54.346;10.210;2023-12-22T04:12:04;98230.97;;;2.92;100.00
68793;BME280;55778;54.346;10.210;2023-12-22T04:14:29;98219.91;;;2.69;100.00
68793;BME280;55778;54.346;10.210;2023-12-22T04:16:54;98223.50;;;2.52;100.00
68793;BME280;55778;54.346;10.210;2023-12-22T04:19:20;98201.53;;;2.39;100.00
68793;BME280;55778;54.346;10.210;2023-12-22T04:21:45;98214.03;;;2.48;100.00
68793;BME280;55778;54.346;10.210;2023-12-22T04:24:10;98207.94;;;2.38;100.00
68793;BME280;55778;54.346;10.210;2023-12-22T04:26:36;98174.03;;;2.45;100.00
68793;BME280;55778;54.346;10.210;2023-12-22T04:29:01;98202.47;;;2.48;100.00
68793;BME280;55778;54.346;10.210;2023-12-22T04:31:27;98192.94;;;2.61;100.00
68793;BME280;55778;54.346;10.210;2023-12-22T04:33:52;98206.94;;;2.65;100.00
68793;BME280;55778;54.346;10.210;2023-12-22T04:36:18;98199.97;;;2.80;100.00
68793;BME280;55778;54.346;10.210;2023-12-22T04:38:43;98176.09;;;2.77;100.00
68793;BME280;55778;54.346;10.210;2023-12-22T04:41:08;98184.53;;;2.90;100.00
68793;BME280;55778;54.346;10.210;2023-12-22T04:43:34;98188.09;;;2.90;100.00
68793;BME280;55778;54.346;10.210;2023-12-22T04:45:59;98188.78;;;2.92;100.00
68793;BME280;55778;54.346;10.210;2023-12-22T04:48:24;98172.28;;;2.87;100.00
68793;BME280;55778;54.346;10.210;2023-12-22T04:50:50;98186.09;;;2.92;100.00
68793;BME280;55778;54.346;10.210;2023-12-22T04:53:15;98166.91;;;2.87;100.00
68793;BME280;55778;54.346;10.210;2023-12-22T04:55:41;98144.22;;;2.90;100.00
68793;BME280;55778;54.346;10.210;2023-12-22T04:58:06;98133.94;;;2.85;100.00
68793;BME280;55778;54.346;10.210;2023-12-22T05:00:31;98158.69;;;2.97;100.00
68793;BME280;55778;54.346;10.210;2023-12-22T05:02:57;98157.00;;;2.88;100.00
68793;BME280;55778;54.346;10.210;2023-12-22T05:05:22;98170.59;;;2.86;100.00
68793;BME280;55778;54.346;10.210;2023-12-22T05:07:47;98152.97;;;2.92;100.00
68793;BME280;55778;54.346;10.210;2023-12-22T05:10:13;98186.09;;;2.92;100.00
68793;BME280;55778;54.346;10.210;2023-12-22T05:12:38;98173.84;;;3.06;100.00
68793;BME280;55778;54.346;10.210;2023-12-22T05:15:04;98201.16;;;3.19;100.00
68793;BME280;55778;54.346;10.210;2023-12-22T05:17:29;98201.66;;;3.14;100.00
68793;BME280;55778;54.346;10.210;2023-12-22T05:19:55;98194.28;;;3.32;100.00
68793;BME280;55778;54.346;10.210;2023-12-22T05:22:20;98206.25;;;3.30;100.00
68793;BME280;55778;54.346;10.210;2023-12-22T05:24:46;98186.06;;;3.34;100.00
68793;BME280;55778;54.346;10.210;2023-12-22T05:27:12;98217.00;;;3.30;100.00
68793;BME280;55778;54.346;10.210;2023-12-22T05:29:37;98214.84;;;3.33;100.00
68793;BME280;55778;54.346;10.210;2023-12-22T05:32:03;98218.69;;;3.31;100.00
68793;BME280;55778;54.346;10.210;2023-12-22T05:34:29;98217.06;;;3.38;100.00
68793;BME280;55778;54.346;10.210;2023-12-22T05:36:54;98233.53;;;3.43;100.00
68793;BME280;55778;54.346;10.210;2023-12-22T05:39:19;98233.69;;;3.33;100.00
68793;BME280;55778;54.346;10.210;2023-12-22T05:41:45;98226.09;;;3.37;100.00
68793;BME280;55778;54.346;10.210;2023-12-22T05:44:10;98253.03;;;3.37;100.00
68793;BME280;55778;54.346;10.210;2023-12-22T05:46:36;98247.00;;;3.43;100.00
68793;BME280;55778;54.346;10.210;2023-12-22T05:49:03;98194.66;;;3.37;100.00
68793;BME280;55778;54.346;10.210;2023-12-22T05:51:28;98252.94;;;3.54;100.00
68793;BME280;55778;54.346;10.210;2023-12-22T05:53:54;98245.16;;;3.43;100.00
68793;BME280;55778;54.346;10.210;2023-12-22T05:56:20;98283.22;;;3.48;100.00
68793;BME280;55778;54.346;10.210;2023-12-22T05:58:46;98253.75;;;3.47;100.00
68793;BME280;55778;54.346;10.210;2023-12-22T06:01:16;98294.47;;;3.52;100.00
68793;BME280;55778;54.346;10.210;2023-12-22T06:03:42;98264.91;;;3.60;100.00
68793;BME280;55778;54.346;10.210;2023-12-22T06:06:07;98274.16;;;3.57;100.00
68793;BME280;55778;54.346;10.210;2023-12-22T06:08:32;98285.59;;;3.59;100.00
68793;BME280;55778;54.346;10.210;2023-12-22T06:10:58;98264.41;;;3.64;100.00
68793;BME280;55778;54.346;10.210;2023-12-22T06:13:23;98260.88;;;3.64;100.00
68793;BME280;55778;54.346;10.210;2023-12-22T06:15:49;98298.72;;;3.62;100.00
68793;BME280;55778;54.346;10.210;2023-12-22T06:18:15;98313.91;;;3.63;100.00
68793;BME280;55778;54.346;10.210;2023-12-22T06:20:40;98306.97;;;3.61;100.00
68793;BME280;55778;54.346;10.210;2023-12-22T06:23:05;98325.81;;;3.61;100.00
68793;BME280;55778;54.346;10.210;2023-12-22T06:25:31;98319.94;;;3.57;100.00
68793;BME280;55778;54.346;10.210;2023-12-22T06:27:56;98314.72;;;3.56;100.00
68793;BME280;55778;54.346;10.210;2023-12-22T06:30:22;98336.19;;;3.48;100.00
68793;BME280;55778;54.346;10.210;2023-12-22T06:32:47;98339.09;;;3.54;100.00
68793;BME280;55778;54.346;10.210;2023-12-22T06:35:13;98319.03;;;3.49;100.00
68793;BME280;55778;54.346;10.210;2023-12-22T06:37:38;98359.94;;;3.52;100.00
68793;BME280;55778;54.346;10.210;2023-12-22T06:40:04;98359.41;;;3.49;100.00
68793;BME280;55778;54.346;10.210;2023-12-22T06:42:30;98366.34;;;3.51;100.00
68793;BME280;55778;54.346;10.210;2023-12-22T06:44:55;98384.19;;;3.52;100.00
68793;BME280;55778;54.346;10.210;2023-12-22T06:47:20;98406.72;;;3.51;100.00
68793;BME280;55778;54.346;10.210;2023-12-22T06:49:46;98393.91;;;3.45;100.00
68793;BME280;55778;54.346;10.210;2023-12-22T06:52:11;98385.03;;;3.27;100.00
68793;BME280;55778;54.346;10.210;2023-12-22T06:54:37;98388.44;;;3.12;100.00
68793;BME280;55778;54.346;10.210;2023-12-22T06:57:02;98405.81;;;3.00;100.00
68793;BME280;55778;54.346;10.210;2023-12-22T06:59:27;98404.25;;;2.89;100.00
68793;BME280;55778;54.346;10.210;2023-12-22T07:01:53;98404.25;;;2.89;100.00
68793;BME280;55778;54.346;10.210;2023-12-22T07:04:18;98401.72;;;2.88;100.00
68793;BME280;55778;54.346;10.210;2023-12-22T07:06:44;98433.75;;;2.81;100.00
68793;BME280;55778;54.346;10.210;2023-12-22T07:11:44;98426.59;;;2.90;100.00
68793;BME280;55778;54.346;10.210;2023-12-22T07:14:09;98421.53;;;2.87;100.00
68793;BME280;55778;54.346;10.210;2023-12-22T07:16:35;98447.06;;;2.83;100.00
68793;BME280;55778;54.346;10.210;2023-12-22T07:19:01;98452.88;;;2.78;100.00
68793;BME280;55778;54.346;10.210;2023-12-22T07:21:27;98441.59;;;2.92;100.00
68793;BME280;55778;54.346;10.210;2023-12-22T07:23:52;98465.97;;;2.91;100.00
68793;BME280;55778;54.346;10.210;2023-12-22T07:26:18;98465.81;;;2.92;100.00
68793;BME280;55778;54.346;10.210;2023-12-22T07:28:43;98476.31;;;3.03;100.00
68793;BME280;55778;54.346;10.210;2023-12-22T07:31:08;98485.16;;;3.13;100.00
68793;BME280;55778;54.346;10.210;2023-12-22T07:33:34;98489.25;;;3.17;100.00
68793;BME280;55778;54.346;10.210;2023-12-22T07:36:00;98504.13;;;2.77;100.00
68793;BME280;55778;54.346;10.210;2023-12-22T07:38:25;98496.84;;;2.42;100.00
68793;BME280;55778;54.346;10.210;2023-12-22T07:40:51;98501.38;;;2.15;100.00
68793;BME280;55778;54.346;10.210;2023-12-22T07:43:16;98525.28;;;2.08;100.00
68793;BME280;55778;54.346;10.210;2023-12-22T07:45:41;98526.75;;;2.02;100.00
68793;BME280;55778;54.346;10.210;2023-12-22T07:48:07;98523.34;;;2.00;100.00
68793;BME280;55778;54.346;10.210;2023-12-22T07:50:33;98534.66;;;2.04;100.00
68793;BME280;55778;54.346;10.210;2023-12-22T07:52:58;98552.44;;;2.05;100.00
68793;BME280;55778;54.346;10.210;2023-12-22T07:55:24;98553.31;;;2.05;100.00
68793;BME280;55778;54.346;10.210;2023-12-22T07:57:50;98535.34;;;2.06;100.00
68793;BME280;55778;54.346;10.210;2023-12-22T08:00:18;98528.03;;;2.26;100.00
68793;BME280;55778;54.346;10.210;2023-12-22T08:02:44;98538.50;;;2.29;100.00
68793;BME280;55778;54.346;10.210;2023-12-22T08:05:09;98547.59;;;2.45;100.00
68793;BME280;55778;54.346;10.210;2023-12-22T08:07:35;98544.78;;;2.47;100.00
68793;BME280;55778;54.346;10.210;2023-12-22T08:10:01;98531.44;;;2.55;100.00
68793;BME280;55778;54.346;10.210;2023-12-22T08:12:27;98543.28;;;2.62;100.00
68793;BME280;55778;54.346;10.210;2023-12-22T08:14:53;98542.41;;;2.88;100.00
68793;BME280;55778;54.346;10.210;2023-12-22T08:17:18;98543.41;;;2.87;100.00
68793;BME280;55778;54.346;10.210;2023-12-22T08:19:44;98534.44;;;2.96;100.00
68793;BME280;55778;54.346;10.210;2023-12-22T08:22:10;98552.66;;;3.20;100.00
68793;BME280;55778;54.346;10.210;2023-12-22T08:24:36;98552.66;;;3.20;100.00
68793;BME280;55778;54.346;10.210;2023-12-22T08:27:01;98547.13;;;3.21;100.00
68793;BME280;55778;54.346;10.210;2023-12-22T08:29:26;98555.09;;;3.31;100.00
68793;BME280;55778;54.346;10.210;2023-12-22T08:31:52;98556.25;;;3.46;100.00
68793;BME280;55778;54.346;10.210;2023-12-22T08:34:18;98541.72;;;3.39;100.00
68793;BME280;55778;54.346;10.210;2023-12-22T08:36:44;98547.56;;;3.52;100.00
68793;BME280;55778;54.346;10.210;2023-12-22T08:39:09;98557.66;;;3.50;100.00
68793;BME280;55778;54.346;10.210;2023-12-22T08:41:35;98567.72;;;3.48;100.00
68793;BME280;55778;54.346;10.210;2023-12-22T08:44:03;98567.69;;;3.65;100.00
68793;BME280;55778;54.346;10.210;2023-12-22T08:46:29;98576.53;;;3.58;100.00
68793;BME280;55778;54.346;10.210;2023-12-22T08:48:56;98586.34;;;3.59;100.00
68793;BME280;55778;54.346;10.210;2023-12-22T08:51:21;98591.91;;;3.83;100.00
68793;BME280;55778;54.346;10.210;2023-12-22T08:53:46;98603.59;;;3.91;100.00
68793;BME280;55778;54.346;10.210;2023-12-22T08:56:12;98594.03;;;3.97;100.00
68793;BME280;55778;54.346;10.210;2023-12-22T08:58:37;98607.41;;;3.81;100.00
68793;BME280;55778;54.346;10.210;2023-12-22T09:01:03;98615.88;;;4.11;100.00
68793;BME280;55778;54.346;10.210;2023-12-22T09:03:28;98619.69;;;3.83;100.00
68793;BME280;55778;54.346;10.210;2023-12-22T09:05:55;98606.94;;;4.11;100.00
68793;BME280;55778;54.346;10.210;2023-12-22T09:08:20;98622.66;;;3.98;100.00
68793;BME280;55778;54.346;10.210;2023-12-22T09:10:46;98632.22;;;3.92;100.00
68793;BME280;55778;54.346;10.210;2023-12-22T09:13:11;98624.53;;;3.97;100.00
68793;BME280;55778;54.346;10.210;2023-12-22T09:15:37;98642.88;;;4.45;100.00
68793;BME280;55778;54.346;10.210;2023-12-22T09:18:02;98641.63;;;4.32;100.00
68793;BME280;55778;54.346;10.210;2023-12-22T09:20:28;98630.72;;;4.41;100.00
68793;BME280;55778;54.346;10.210;2023-12-22T09:22:55;98638.31;;;4.38;100.00
68793;BME280;55778;54.346;10.210;2023-12-22T09:25:21;98647.00;;;4.57;100.00
68793;BME280;55778;54.346;10.210;2023-12-22T09:27:47;98645.22;;;4.40;100.00
68793;BME280;55778;54.346;10.210;2023-12-22T09:30:13;98651.09;;;4.36;100.00
68793;BME280;55778;54.346;10.210;2023-12-22T09:32:38;98663.78;;;4.43;100.00
68793;BME280;55778;54.346;10.210;2023-12-22T09:35:04;98670.94;;;4.60;100.00
68793;BME280;55778;54.346;10.210;2023-12-22T09:37:30;98667.63;;;4.66;100.00
68793;BME280;55778;54.346;10.210;2023-12-22T09:39:55;98671.22;;;4.75;100.00
68793;BME280;55778;54.346;10.210;2023-12-22T09:42:21;98651.34;;;4.84;100.00
68793;BME280;55778;54.346;10.210;2023-12-22T09:44:49;98665.94;;;4.99;100.00
68793;BME280;55778;54.346;10.210;2023-12-22T09:47:17;98661.97;;;4.52;100.00
68793;BME280;55778;54.346;10.210;2023-12-22T09:49:43;98663.47;;;4.46;100.00
68793;BME280;55778;54.346;10.210;2023-12-22T09:52:10;98673.59;;;4.27;100.00
68793;BME280;55778;54.346;10.210;2023-12-22T09:54:37;98674.69;;;4.16;100.00
68793;BME280;55778;54.346;10.210;2023-12-22T09:57:03;98667.44;;;4.93;100.00
68793;BME280;55778;54.346;10.210;2023-12-22T09:59:30;98684.16;;;4.97;100.00
68793;BME280;55778;54.346;10.210;2023-12-22T10:01:57;98678.28;;;5.09;100.00
68793;BME280;55778;54.346;10.210;2023-12-22T10:04:25;98677.19;;;4.61;100.00
68793;BME280;55778;54.346;10.210;2023-12-22T10:06:51;98673.06;;;4.74;100.00
68793;BME280;55778;54.346;10.210;2023-12-22T10:09:17;98674.94;;;5.07;100.00
68793;BME280;55778;54.346;10.210;2023-12-22T10:11:49;98663.53;;;4.88;100.00
68793;BME280;55778;54.346;10.210;2023-12-22T10:14:18;98660.25;;;5.18;100.00
68793;BME280;55778;54.346;10.210;2023-12-22T10:16:48;98665.88;;;5.24;100.00
68793;BME280;55778;54.346;10.210;2023-12-22T10:19:14;98656.16;;;4.98;100.00
68793;BME280;55778;54.346;10.210;2023-12-22T10:21:39;98678.59;;;5.48;100.00
68793;BME280;55778;54.346;10.210;2023-12-22T10:24:05;98678.84;;;5.21;100.00
68793;BME280;55778;54.346;10.210;2023-12-22T10:26:30;98679.56;;;4.38;100.00
68793;BME280;55778;54.346;10.210;2023-12-22T10:28:56;98673.50;;;4.36;100.00
68793;BME280;55778;54.346;10.210;2023-12-22T10:31:21;98680.47;;;4.21;100.00
68793;BME280;55778;54.346;10.210;2023-12-22T10:33:47;98675.81;;;5.24;100.00
68793;BME280;55778;54.346;10.210;2023-12-22T10:36:13;98669.69;;;5.06;100.00
68793;BME280;55778;54.346;10.210;2023-12-22T10:38:39;98656.94;;;5.32;100.00
68793;BME280;55778;54.346;10.210;2023-12-22T10:41:06;98676.78;;;5.64;100.00
68793;BME280;55778;54.346;10.210;2023-12-22T10:43:37;98675.44;;;5.60;100.00
68793;BME280;55778;54.346;10.210;2023-12-22T10:46:03;98688.66;;;5.30;100.00
68793;BME280;55778;54.346;10.210;2023-12-22T10:48:28;98699.88;;;5.43;100.00
68793;BME280;55778;54.346;10.210;2023-12-22T10:50:54;98698.75;;;5.12;100.00
68793;BME280;55778;54.346;10.210;2023-12-22T10:53:21;98690.19;;;4.91;100.00
68793;BME280;55778;54.346;10.210;2023-12-22T10:55:46;98686.31;;;4.93;100.00
68793;BME280;55778;54.346;10.210;2023-12-22T10:58:16;98686.97;;;4.87;100.00
68793;BME280;55778;54.346;10.210;2023-12-22T11:00:44;98693.31;;;4.78;100.00
68793;BME280;55778;54.346;10.210;2023-12-22T11:03:13;98689.56;;;5.05;100.00
68793;BME280;55778;54.346;10.210;2023-12-22T11:05:44;98685.06;;;4.80;100.00
68793;BME280;55778;54.346;10.210;2023-12-22T11:08:11;98704.66;;;5.65;100.00
68793;BME280;55778;54.346;10.210;2023-12-22T11:10:42;98713.38;;;5.51;100.00
68793;BME280;55778;54.346;10.210;2023-12-22T11:13:12;98704.47;;;5.17;100.00
68793;BME280;55778;54.346;10.210;2023-12-22T11:15:39;98706.25;;;4.67;100.00
68793;BME280;55778;54.346;10.210;2023-12-22T11:18:05;98717.03;;;4.67;100.00
68793;BME280;55778;54.346;10.210;2023-12-22T11:20:32;98695.28;;;4.43;100.00
68793;BME280;55778;54.346;10.210;2023-12-22T11:22:59;98687.44;;;5.16;100.00
68793;BME280;55778;54.346;10.210;2023-12-22T11:25:26;98702.09;;;5.47;100.00
68793;BME280;55778;54.346;10.210;2023-12-22T11:27:52;98689.56;;;5.96;100.00
68793;BME280;55778;54.346;10.210;2023-12-22T11:30:20;98690.28;;;5.64;100.00
68793;BME280;55778;54.346;10.210;2023-12-22T11:32:47;98696.19;;;5.60;100.00
68793;BME280;55778;54.346;10.210;2023-12-22T11:35:14;98680.16;;;5.58;100.00
68793;BME280;55778;54.346;10.210;2023-12-22T11:37:40;98687.69;;;5.31;100.00
68793;BME280;55778;54.346;10.210;2023-12-22T11:40:07;98710.47;;;5.36;100.00
68793;BME280;55778;54.346;10.210;2023-12-22T11:42:39;98679.50;;;5.64;100.00
68793;BME280;55778;54.346;10.210;2023-12-22T11:45:10;98683.97;;;5.89;100.00
68793;BME280;55778;54.346;10.210;2023-12-22T11:47:37;98679.56;;;6.37;100.00
68793;BME280;55778;54.346;10.210;2023-12-22T11:50:03;98677.00;;;6.59;100.00
68793;BME280;55778;54.346;10.210;2023-12-22T11:52:29;98685.16;;;6.35;100.00
68793;BME280;55778;54.346;10.210;2023-12-22T11:54:55;98662.84;;;6.25;100.00
68793;BME280;55778;54.346;10.210;2023-12-22T11:57:32;98678.91;;;6.35;100.00
68793;BME280;55778;54.346;10.210;2023-12-22T12:02:29;98689.03;;;6.25;100.00
68793;BME280;55778;54.346;10.210;2023-12-22T12:04:57;98691.41;;;6.44;100.00
68793;BME280;55778;54.346;10.210;2023-12-22T12:07:44;98702.66;;;6.95;100.00
68793;BME280;55778;54.346;10.210;2023-12-22T12:10:11;98682.44;;;6.43;100.00
68793;BME280;55778;54.346;10.210;2023-12-22T12:12:38;98699.81;;;6.65;100.00
68793;BME280;55778;54.346;10.210;2023-12-22T12:15:17;98708.47;;;5.96;100.00
68793;BME280;55778;54.346;10.210;2023-12-22T12:17:47;98708.28;;;5.89;100.00
68793;BME280;55778;54.346;10.210;2023-12-22T12:20:13;98717.81;;;4.85;100.00
68793;BME280;55778;54.346;10.210;2023-12-22T12:22:39;98716.66;;;4.36;100.00
68793;BME280;55778;54.346;10.210;2023-12-22T12:25:09;98721.53;;;4.15;100.00
68793;BME280;55778;54.346;10.210;2023-12-22T12:27:35;98728.53;;;3.90;100.00
68793;BME280;55778;54.346;10.210;2023-12-22T12:30:13;98723.06;;;3.65;100.00
68793;BME280;55778;54.346;10.210;2023-12-22T12:32:41;98729.19;;;3.57;100.00
68793;BME280;55778;54.346;10.210;2023-12-22T12:35:08;98726.84;;;3.45;100.00
68793;BME280;55778;54.346;10.210;2023-12-22T12:37:33;98731.31;;;3.36;100.00
68793;BME280;55778;54.346;10.210;2023-12-22T12:40:01;98727.88;;;3.44;100.00
68793;BME280;55778;54.346;10.210;2023-12-22T12:42:29;98740.47;;;3.88;100.00
68793;BME280;55778;54.346;10.210;2023-12-22T12:44:58;98724.75;;;3.83;100.00
68793;BME280;55778;54.346;10.210;2023-12-22T12:47:24;98733.13;;;3.98;100.00
68793;BME280;55778;54.346;10.210;2023-12-22T12:50:01;98718.75;;;3.72;100.00
68793;BME280;55778;54.346;10.210;2023-12-22T12:52:28;98731.63;;;3.51;100.00
68793;BME280;55778;54.346;10.210;2023-12-22T12:54:54;98731.53;;;3.43;100.00